Impacts TAF Board INFO
FOR SITUATIONAL AWARENESS. NOT TO BE USED FOR FLIGHT PLANNING PURPOSES.
IDs:

KDEN - Denver Intl, CO, US

Issued at 0258 UTC 17 Oct 2017
Updated at 0349 UTC 17 Oct 2017
Potential Impact None Slight Moderate High
Time0253Z 17/04Z 17/05Z 17/06Z 17/07Z 17/08Z 17/09Z 17/10Z 17/11Z 17/12Z 17/13Z 17/14Z 17/15Z 17/16Z>>
Type OBS PRVL PRVL PRVL PRVL PRVL PRVL PRVL PRVL PRVL PRVL PRVL PRVL PRVL
VIS 10 >6 >6 >6 >6 >6 >6 >6 >6 >6 >6 >6 >6 >6
CIG -- -- -- -- -- -- -- -- -- -- -- -- -- --
Cover FEW SCT SCT FEW FEW FEW FEW FEW FEW FEW FEW FEW FEW FEW
FltCat VFR VFR VFR VFR VFR VFR VFR VFR VFR VFR VFR VFR VFR VFR
WX -- -- -- -- -- -- -- -- -- -- -- -- -- --
WDir VRB VRB VRB 210 210 210 210 210 210 210 210 210 210 210
WSpd 5 5 5 10 10 10 10 10 10 10 10 10 10 10
WGst -- -- -- -- -- -- -- -- -- -- -- -- -- --

Raw TAF
KDEN 170258Z 1703/1806 VRB05KT P6SM SCT220
  FM170600 21010KT P6SM FEW220
  FM172000 15008KT P6SM SCT220
  FM180100 19010KT P6SM SCT220


Raw METAR
KDEN 170253Z VRB05KT 10SM FEW220 11/M06 A3025 RMK AO2 SLP205 T01061061 53012
KDEN 170153Z 00000KT 10SM FEW220 20/M12 A3024 RMK AO2 SLP187 T02001122
KDEN 170053Z 27003KT 10SM SCT220 19/M11 A3022 RMK AO2 SLP187 T01941106

METAR Board
Radar Display
Forecast Discussion

FOR SITUATIONAL AWARENESS. NOT TO BE USED FOR FLIGHT PLANNING PURPOSES.